sensor_id;sensor_type;location;lat;lon;timestamp;P1;durP1;ratioP1;P2;durP2;ratioP2
77061;SDS011;65989;51.686;5.138;2023-01-28T00:01:14;12.18;;;7.38;;
77061;SDS011;65989;51.686;5.138;2023-01-28T00:03:40;11.05;;;7.18;;
77061;SDS011;65989;51.686;5.138;2023-01-28T00:06:08;11.40;;;7.10;;
77061;SDS011;65989;51.686;5.138;2023-01-28T00:08:38;11.43;;;7.20;;
77061;SDS011;65989;51.686;5.138;2023-01-28T00:11:05;10.10;;;6.90;;
77061;SDS011;65989;51.686;5.138;2023-01-28T00:13:31;11.93;;;7.97;;
77061;SDS011;65989;51.686;5.138;2023-01-28T00:15:58;11.23;;;7.03;;
77061;SDS011;65989;51.686;5.138;2023-01-28T00:18:26;10.20;;;6.50;;
77061;SDS011;65989;51.686;5.138;2023-01-28T00:20:59;10.68;;;6.90;;
77061;SDS011;65989;51.686;5.138;2023-01-28T00:23:30;10.73;;;6.78;;
77061;SDS011;65989;51.686;5.138;2023-01-28T00:26:00;10.23;;;6.18;;
77061;SDS011;65989;51.686;5.138;2023-01-28T00:28:28;10.67;;;7.07;;
77061;SDS011;65989;51.686;5.138;2023-01-28T00:30:53;10.18;;;6.55;;
77061;SDS011;65989;51.686;5.138;2023-01-28T00:33:19;11.27;;;6.63;;
77061;SDS011;65989;51.686;5.138;2023-01-28T00:35:44;11.95;;;7.13;;
77061;SDS011;65989;51.686;5.138;2023-01-28T00:38:10;11.87;;;6.30;;
77061;SDS011;65989;51.686;5.138;2023-01-28T00:40:36;10.30;;;6.50;;
77061;SDS011;65989;51.686;5.138;2023-01-28T00:43:01;11.33;;;6.63;;
77061;SDS011;65989;51.686;5.138;2023-01-28T00:45:27;10.83;;;6.97;;
77061;SDS011;65989;51.686;5.138;2023-01-28T00:47:52;11.90;;;6.43;;
77061;SDS011;65989;51.686;5.138;2023-01-28T00:50:18;10.43;;;6.60;;
77061;SDS011;65989;51.686;5.138;2023-01-28T00:52:45;11.27;;;7.30;;
77061;SDS011;65989;51.686;5.138;2023-01-28T00:55:11;10.35;;;6.90;;
77061;SDS011;65989;51.686;5.138;2023-01-28T00:57:37;10.50;;;6.27;;
77061;SDS011;65989;51.686;5.138;2023-01-28T01:00:03;11.75;;;6.72;;
77061;SDS011;65989;51.686;5.138;2023-01-28T01:02:29;11.13;;;7.40;;
77061;SDS011;65989;51.686;5.138;2023-01-28T01:04:55;10.90;;;6.07;;
77061;SDS011;65989;51.686;5.138;2023-01-28T01:07:24;10.27;;;6.72;;
77061;SDS011;65989;51.686;5.138;2023-01-28T01:10:06;10.55;;;6.43;;
77061;SDS011;65989;51.686;5.138;2023-01-28T01:12:33;11.25;;;6.82;;
77061;SDS011;65989;51.686;5.138;2023-01-28T01:14:58;10.57;;;7.17;;
77061;SDS011;65989;51.686;5.138;2023-01-28T01:17:24;11.50;;;7.07;;
77061;SDS011;65989;51.686;5.138;2023-01-28T01:19:49;10.90;;;6.57;;
77061;SDS011;65989;51.686;5.138;2023-01-28T01:22:14;11.23;;;6.47;;
77061;SDS011;65989;51.686;5.138;2023-01-28T01:24:40;10.45;;;6.70;;
77061;SDS011;65989;51.686;5.138;2023-01-28T01:27:05;10.10;;;6.30;;
77061;SDS011;65989;51.686;5.138;2023-01-28T01:29:31;10.20;;;6.17;;
77061;SDS011;65989;51.686;5.138;2023-01-28T01:31:57;10.45;;;6.35;;
77061;SDS011;65989;51.686;5.138;2023-01-28T01:34:23;10.77;;;6.73;;
77061;SDS011;65989;51.686;5.138;2023-01-28T01:36:49;9.98;;;6.30;;
77061;SDS011;65989;51.686;5.138;2023-01-28T01:39:14;11.00;;;6.20;;
77061;SDS011;65989;51.686;5.138;2023-01-28T01:41:40;11.17;;;6.80;;
77061;SDS011;65989;51.686;5.138;2023-01-28T01:44:05;10.03;;;6.20;;
77061;SDS011;65989;51.686;5.138;2023-01-28T01:46:39;11.73;;;6.90;;
77061;SDS011;65989;51.686;5.138;2023-01-28T01:49:15;10.35;;;6.20;;
77061;SDS011;65989;51.686;5.138;2023-01-28T01:51:45;10.55;;;6.65;;
77061;SDS011;65989;51.686;5.138;2023-01-28T01:54:14;10.27;;;6.60;;
77061;SDS011;65989;51.686;5.138;2023-01-28T01:56:42;11.33;;;6.50;;
77061;SDS011;65989;51.686;5.138;2023-01-28T01:59:12;10.38;;;6.95;;
77061;SDS011;65989;51.686;5.138;2023-01-28T02:01:41;10.85;;;7.00;;
77061;SDS011;65989;51.686;5.138;2023-01-28T02:04:12;10.98;;;6.97;;
77061;SDS011;65989;51.686;5.138;2023-01-28T02:06:39;11.02;;;7.10;;
77061;SDS011;65989;51.686;5.138;2023-01-28T02:09:06;12.90;;;7.00;;
77061;SDS011;65989;51.686;5.138;2023-01-28T02:12:03;11.95;;;6.65;;
77061;SDS011;65989;51.686;5.138;2023-01-28T02:15:07;11.80;;;6.57;;
77061;SDS011;65989;51.686;5.138;2023-01-28T02:17:35;10.55;;;6.63;;
77061;SDS011;65989;51.686;5.138;2023-01-28T02:20:05;12.00;;;7.53;;
77061;SDS011;65989;51.686;5.138;2023-01-28T02:22:42;11.50;;;6.90;;
77061;SDS011;65989;51.686;5.138;2023-01-28T02:36:10;11.93;;;7.03;;
77061;SDS011;65989;51.686;5.138;2023-01-28T02:38:45;13.02;;;7.68;;
77061;SDS011;65989;51.686;5.138;2023-01-28T02:41:17;12.60;;;7.30;;
77061;SDS011;65989;51.686;5.138;2023-01-28T02:44:00;10.52;;;6.60;;
77061;SDS011;65989;51.686;5.138;2023-01-28T02:49:11;13.07;;;7.28;;
77061;SDS011;65989;51.686;5.138;2023-01-28T02:54:10;12.40;;;7.00;;
77061;SDS011;65989;51.686;5.138;2023-01-28T02:56:42;11.67;;;6.77;;
77061;SDS011;65989;51.686;5.138;2023-01-28T02:59:16;11.85;;;6.88;;
77061;SDS011;65989;51.686;5.138;2023-01-28T03:05:08;11.50;;;7.22;;
77061;SDS011;65989;51.686;5.138;2023-01-28T03:07:38;12.43;;;7.13;;
77061;SDS011;65989;51.686;5.138;2023-01-28T03:10:04;11.47;;;6.93;;
77061;SDS011;65989;51.686;5.138;2023-01-28T03:12:36;14.98;;;7.38;;
77061;SDS011;65989;51.686;5.138;2023-01-28T03:15:27;13.07;;;7.47;;
77061;SDS011;65989;51.686;5.138;2023-01-28T03:18:27;12.90;;;6.93;;
77061;SDS011;65989;51.686;5.138;2023-01-28T03:21:24;13.40;;;7.10;;
77061;SDS011;65989;51.686;5.138;2023-01-28T03:30:12;12.90;;;7.40;;
77061;SDS011;65989;51.686;5.138;2023-01-28T03:32:59;12.40;;;7.17;;
77061;SDS011;65989;51.686;5.138;2023-01-28T03:35:44;13.52;;;7.45;;
77061;SDS011;65989;51.686;5.138;2023-01-28T03:38:29;11.50;;;6.38;;
77061;SDS011;65989;51.686;5.138;2023-01-28T03:41:05;13.02;;;7.72;;
77061;SDS011;65989;51.686;5.138;2023-01-28T03:43:33;12.57;;;6.80;;
77061;SDS011;65989;51.686;5.138;2023-01-28T03:45:58;12.10;;;6.97;;
77061;SDS011;65989;51.686;5.138;2023-01-28T03:48:24;14.80;;;7.38;;
77061;SDS011;65989;51.686;5.138;2023-01-28T03:50:52;12.57;;;7.03;;
77061;SDS011;65989;51.686;5.138;2023-01-28T03:53:19;13.68;;;7.32;;
77061;SDS011;65989;51.686;5.138;2023-01-28T03:55:46;13.25;;;7.32;;
77061;SDS011;65989;51.686;5.138;2023-01-28T03:58:13;13.18;;;6.80;;
77061;SDS011;65989;51.686;5.138;2023-01-28T04:00:39;14.43;;;7.77;;
77061;SDS011;65989;51.686;5.138;2023-01-28T04:03:08;13.23;;;7.32;;
77061;SDS011;65989;51.686;5.138;2023-01-28T04:05:44;14.25;;;7.68;;
77061;SDS011;65989;51.686;5.138;2023-01-28T04:08:23;15.18;;;8.27;;
77061;SDS011;65989;51.686;5.138;2023-01-28T04:10:49;14.63;;;7.07;;
77061;SDS011;65989;51.686;5.138;2023-01-28T04:13:15;14.18;;;7.40;;
77061;SDS011;65989;51.686;5.138;2023-01-28T04:15:42;13.98;;;7.22;;
77061;SDS011;65989;51.686;5.138;2023-01-28T04:18:08;13.63;;;7.70;;
77061;SDS011;65989;51.686;5.138;2023-01-28T04:20:34;13.23;;;7.27;;
77061;SDS011;65989;51.686;5.138;2023-01-28T04:23:00;13.70;;;7.63;;
77061;SDS011;65989;51.686;5.138;2023-01-28T04:25:26;13.93;;;7.60;;
77061;SDS011;65989;51.686;5.138;2023-01-28T04:27:51;12.73;;;7.27;;
77061;SDS011;65989;51.686;5.138;2023-01-28T04:30:17;13.87;;;7.70;;
77061;SDS011;65989;51.686;5.138;2023-01-28T04:32:43;12.63;;;6.90;;
77061;SDS011;65989;51.686;5.138;2023-01-28T04:35:10;11.07;;;6.88;;
77061;SDS011;65989;51.686;5.138;2023-01-28T04:37:35;10.33;;;5.60;;
77061;SDS011;65989;51.686;5.138;2023-01-28T04:40:01;12.77;;;7.10;;
77061;SDS011;65989;51.686;5.138;2023-01-28T04:42:26;15.23;;;7.43;;
77061;SDS011;65989;51.686;5.138;2023-01-28T04:44:52;12.33;;;7.20;;
77061;SDS011;65989;51.686;5.138;2023-01-28T04:47:17;12.90;;;6.63;;
77061;SDS011;65989;51.686;5.138;2023-01-28T04:49:43;12.20;;;7.18;;
77061;SDS011;65989;51.686;5.138;2023-01-28T04:52:09;15.80;;;7.20;;
77061;SDS011;65989;51.686;5.138;2023-01-28T04:54:34;14.48;;;7.80;;
77061;SDS011;65989;51.686;5.138;2023-01-28T04:57:00;12.90;;;7.17;;
77061;SDS011;65989;51.686;5.138;2023-01-28T04:59:25;12.10;;;7.10;;
77061;SDS011;65989;51.686;5.138;2023-01-28T05:01:50;12.80;;;7.27;;
77061;SDS011;65989;51.686;5.138;2023-01-28T05:04:16;13.17;;;6.97;;
77061;SDS011;65989;51.686;5.138;2023-01-28T05:06:41;12.30;;;7.03;;
77061;SDS011;65989;51.686;5.138;2023-01-28T05:09:07;13.10;;;7.70;;
77061;SDS011;65989;51.686;5.138;2023-01-28T05:11:32;12.50;;;7.60;;
77061;SDS011;65989;51.686;5.138;2023-01-28T05:13:57;13.50;;;7.30;;
77061;SDS011;65989;51.686;5.138;2023-01-28T05:16:23;12.27;;;7.30;;
77061;SDS011;65989;51.686;5.138;2023-01-28T05:18:48;13.63;;;7.70;;
77061;SDS011;65989;51.686;5.138;2023-01-28T05:21:15;14.00;;;7.28;;
77061;SDS011;65989;51.686;5.138;2023-01-28T05:23:41;13.40;;;7.45;;
77061;SDS011;65989;51.686;5.138;2023-01-28T05:26:07;13.07;;;7.27;;
77061;SDS011;65989;51.686;5.138;2023-01-28T05:28:32;13.18;;;7.82;;
77061;SDS011;65989;51.686;5.138;2023-01-28T05:31:02;13.10;;;7.73;;
77061;SDS011;65989;51.686;5.138;2023-01-28T05:33:28;13.65;;;8.02;;
77061;SDS011;65989;51.686;5.138;2023-01-28T05:35:54;13.27;;;8.00;;
77061;SDS011;65989;51.686;5.138;2023-01-28T05:38:19;12.65;;;7.07;;
77061;SDS011;65989;51.686;5.138;2023-01-28T05:40:45;12.17;;;7.33;;
77061;SDS011;65989;51.686;5.138;2023-01-28T05:43:11;13.57;;;7.30;;
77061;SDS011;65989;51.686;5.138;2023-01-28T05:45:36;14.43;;;8.17;;
77061;SDS011;65989;51.686;5.138;2023-01-28T05:48:02;12.80;;;7.57;;
77061;SDS011;65989;51.686;5.138;2023-01-28T05:50:28;12.48;;;7.65;;
77061;SDS011;65989;51.686;5.138;2023-01-28T05:52:53;13.50;;;7.80;;
77061;SDS011;65989;51.686;5.138;2023-01-28T05:55:18;14.57;;;8.47;;
77061;SDS011;65989;51.686;5.138;2023-01-28T05:57:44;15.37;;;8.40;;
77061;SDS011;65989;51.686;5.138;2023-01-28T06:00:09;13.97;;;8.23;;
77061;SDS011;65989;51.686;5.138;2023-01-28T06:02:35;15.70;;;8.40;;
77061;SDS011;65989;51.686;5.138;2023-01-28T06:05:01;15.00;;;8.63;;
77061;SDS011;65989;51.686;5.138;2023-01-28T06:07:26;14.87;;;8.40;;
77061;SDS011;65989;51.686;5.138;2023-01-28T06:09:51;16.10;;;8.90;;
77061;SDS011;65989;51.686;5.138;2023-01-28T06:12:17;14.17;;;8.20;;
77061;SDS011;65989;51.686;5.138;2023-01-28T06:14:42;13.77;;;7.77;;
77061;SDS011;65989;51.686;5.138;2023-01-28T06:17:07;13.93;;;8.03;;
77061;SDS011;65989;51.686;5.138;2023-01-28T06:19:33;13.73;;;7.97;;
77061;SDS011;65989;51.686;5.138;2023-01-28T06:21:58;13.63;;;8.02;;
77061;SDS011;65989;51.686;5.138;2023-01-28T06:24:24;13.00;;;8.00;;
77061;SDS011;65989;51.686;5.138;2023-01-28T06:26:49;14.43;;;7.93;;
77061;SDS011;65989;51.686;5.138;2023-01-28T06:29:15;15.67;;;8.27;;
77061;SDS011;65989;51.686;5.138;2023-01-28T06:31:40;14.13;;;8.03;;
77061;SDS011;65989;51.686;5.138;2023-01-28T06:34:05;13.65;;;7.80;;
77061;SDS011;65989;51.686;5.138;2023-01-28T06:36:31;15.67;;;8.77;;
77061;SDS011;65989;51.686;5.138;2023-01-28T06:38:56;15.17;;;9.00;;
77061;SDS011;65989;51.686;5.138;2023-01-28T06:41:22;13.73;;;8.13;;
77061;SDS011;65989;51.686;5.138;2023-01-28T06:43:48;14.20;;;8.30;;
77061;SDS011;65989;51.686;5.138;2023-01-28T06:46:13;15.87;;;7.90;;
77061;SDS011;65989;51.686;5.138;2023-01-28T06:48:38;15.27;;;8.88;;
77061;SDS011;65989;51.686;5.138;2023-01-28T06:51:04;14.63;;;8.83;;
77061;SDS011;65989;51.686;5.138;2023-01-28T06:53:29;15.63;;;8.80;;
77061;SDS011;65989;51.686;5.138;2023-01-28T06:55:55;16.50;;;8.50;;
77061;SDS011;65989;51.686;5.138;2023-01-28T06:58:20;15.80;;;9.07;;
77061;SDS011;65989;51.686;5.138;2023-01-28T07:00:46;13.68;;;8.18;;
77061;SDS011;65989;51.686;5.138;2023-01-28T07:03:11;13.73;;;8.27;;
77061;SDS011;65989;51.686;5.138;2023-01-28T07:05:36;14.33;;;8.47;;
77061;SDS011;65989;51.686;5.138;2023-01-28T07:08:02;16.60;;;9.23;;
77061;SDS011;65989;51.686;5.138;2023-01-28T07:10:28;14.98;;;8.63;;
77061;SDS011;65989;51.686;5.138;2023-01-28T07:12:54;16.93;;;9.23;;
77061;SDS011;65989;51.686;5.138;2023-01-28T07:15:19;15.67;;;8.33;;
77061;SDS011;65989;51.686;5.138;2023-01-28T07:17:44;15.60;;;9.07;;
77061;SDS011;65989;51.686;5.138;2023-01-28T07:20:11;13.77;;;8.23;;
77061;SDS011;65989;51.686;5.138;2023-01-28T07:22:39;14.55;;;8.13;;
77061;SDS011;65989;51.686;5.138;2023-01-28T07:25:06;16.48;;;8.63;;
77061;SDS011;65989;51.686;5.138;2023-01-28T07:27:33;14.80;;;8.88;;
77061;SDS011;65989;51.686;5.138;2023-01-28T07:29:58;15.30;;;8.90;;
77061;SDS011;65989;51.686;5.138;2023-01-28T07:32:24;14.03;;;7.77;;
77061;SDS011;65989;51.686;5.138;2023-01-28T07:34:51;14.02;;;8.25;;
77061;SDS011;65989;51.686;5.138;2023-01-28T07:37:17;14.35;;;8.38;;
77061;SDS011;65989;51.686;5.138;2023-01-28T07:39:42;12.97;;;7.87;;
77061;SDS011;65989;51.686;5.138;2023-01-28T07:42:07;15.67;;;7.90;;
77061;SDS011;65989;51.686;5.138;2023-01-28T07:44:33;14.45;;;7.70;;
77061;SDS011;65989;51.686;5.138;2023-01-28T07:46:59;13.73;;;7.50;;
77061;SDS011;65989;51.686;5.138;2023-01-28T07:49:26;14.20;;;8.30;;
77061;SDS011;65989;51.686;5.138;2023-01-28T07:51:51;15.27;;;7.93;;
77061;SDS011;65989;51.686;5.138;2023-01-28T07:54:17;14.40;;;8.27;;
77061;SDS011;65989;51.686;5.138;2023-01-28T07:56:42;14.60;;;8.53;;
77061;SDS011;65989;51.686;5.138;2023-01-28T07:59:08;13.17;;;7.57;;
77061;SDS011;65989;51.686;5.138;2023-01-28T08:01:33;13.57;;;7.53;;
77061;SDS011;65989;51.686;5.138;2023-01-28T08:03:58;19.00;;;8.67;;
77061;SDS011;65989;51.686;5.138;2023-01-28T08:06:24;16.73;;;8.90;;
77061;SDS011;65989;51.686;5.138;2023-01-28T08:08:49;15.13;;;8.73;;
77061;SDS011;65989;51.686;5.138;2023-01-28T08:11:14;15.97;;;9.03;;
77061;SDS011;65989;51.686;5.138;2023-01-28T08:13:40;16.03;;;8.33;;
77061;SDS011;65989;51.686;5.138;2023-01-28T08:16:05;16.43;;;9.37;;
77061;SDS011;65989;51.686;5.138;2023-01-28T08:18:31;14.02;;;8.13;;
77061;SDS011;65989;51.686;5.138;2023-01-28T08:20:57;14.97;;;8.80;;
77061;SDS011;65989;51.686;5.138;2023-01-28T08:23:23;14.48;;;8.00;;
77061;SDS011;65989;51.686;5.138;2023-01-28T08:25:51;17.50;;;9.27;;
77061;SDS011;65989;51.686;5.138;2023-01-28T08:28:17;14.30;;;8.07;;
77061;SDS011;65989;51.686;5.138;2023-01-28T08:30:43;17.67;;;9.37;;
77061;SDS011;65989;51.686;5.138;2023-01-28T08:33:09;16.17;;;8.88;;
77061;SDS011;65989;51.686;5.138;2023-01-28T08:35:36;13.97;;;8.53;;
77061;SDS011;65989;51.686;5.138;2023-01-28T08:38:02;16.58;;;8.80;;
77061;SDS011;65989;51.686;5.138;2023-01-28T08:40:29;15.02;;;8.55;;
77061;SDS011;65989;51.686;5.138;2023-01-28T08:42:55;13.07;;;7.32;;
77061;SDS011;65989;51.686;5.138;2023-01-28T08:45:22;13.85;;;8.38;;
77061;SDS011;65989;51.686;5.138;2023-01-28T08:50:22;12.93;;;7.55;;
77061;SDS011;65989;51.686;5.138;2023-01-28T08:52:53;16.30;;;9.20;;
77061;SDS011;65989;51.686;5.138;2023-01-28T08:55:20;14.88;;;8.48;;
77061;SDS011;65989;51.686;5.138;2023-01-28T08:57:45;14.70;;;8.63;;
77061;SDS011;65989;51.686;5.138;2023-01-28T09:00:11;14.70;;;8.27;;
77061;SDS011;65989;51.686;5.138;2023-01-28T09:02:37;15.73;;;8.13;;
77061;SDS011;65989;51.686;5.138;2023-01-28T09:05:03;13.37;;;7.33;;
77061;SDS011;65989;51.686;5.138;2023-01-28T09:07:29;13.60;;;7.60;;
77061;SDS011;65989;51.686;5.138;2023-01-28T09:09:55;13.80;;;7.90;;
77061;SDS011;65989;51.686;5.138;2023-01-28T09:12:20;15.43;;;8.20;;
77061;SDS011;65989;51.686;5.138;2023-01-28T09:14:46;14.70;;;8.43;;
77061;SDS011;65989;51.686;5.138;2023-01-28T09:17:11;15.23;;;8.23;;
77061;SDS011;65989;51.686;5.138;2023-01-28T09:19:36;13.80;;;8.13;;
77061;SDS011;65989;51.686;5.138;2023-01-28T09:22:02;10.80;;;6.27;;
77061;SDS011;65989;51.686;5.138;2023-01-28T09:24:28;13.82;;;7.38;;
77061;SDS011;65989;51.686;5.138;2023-01-28T09:26:54;15.20;;;8.50;;
77061;SDS011;65989;51.686;5.138;2023-01-28T09:29:19;13.70;;;7.63;;
77061;SDS011;65989;51.686;5.138;2023-01-28T09:31:45;15.90;;;8.00;;
77061;SDS011;65989;51.686;5.138;2023-01-28T09:34:10;13.18;;;7.65;;
77061;SDS011;65989;51.686;5.138;2023-01-28T09:36:35;13.97;;;8.07;;
77061;SDS011;65989;51.686;5.138;2023-01-28T09:39:01;12.93;;;8.37;;
77061;SDS011;65989;51.686;5.138;2023-01-28T09:41:29;12.50;;;7.72;;
77061;SDS011;65989;51.686;5.138;2023-01-28T09:44:18;14.15;;;8.45;;
77061;SDS011;65989;51.686;5.138;2023-01-28T09:46:59;15.50;;;9.70;;
77061;SDS011;65989;51.686;5.138;2023-01-28T09:49:30;13.18;;;8.50;;
77061;SDS011;65989;51.686;5.138;2023-01-28T09:51:59;14.82;;;8.25;;
77061;SDS011;65989;51.686;5.138;2023-01-28T09:54:37;13.13;;;7.93;;
77061;SDS011;65989;51.686;5.138;2023-01-28T09:57:19;12.77;;;7.78;;
77061;SDS011;65989;51.686;5.138;2023-01-28T09:59:49;13.27;;;8.07;;
77061;SDS011;65989;51.686;5.138;2023-01-28T10:10:14;13.38;;;7.95;;
77061;SDS011;65989;51.686;5.138;2023-01-28T10:18:09;13.70;;;7.27;;
77061;SDS011;65989;51.686;5.138;2023-01-28T10:26:25;14.25;;;7.85;;
77061;SDS011;65989;51.686;5.138;2023-01-28T10:28:57;15.70;;;8.73;;
77061;SDS011;65989;51.686;5.138;2023-01-28T10:31:33;15.43;;;8.30;;
77061;SDS011;65989;51.686;5.138;2023-01-28T10:34:03;16.05;;;9.02;;
77061;SDS011;65989;51.686;5.138;2023-01-28T10:36:28;15.90;;;8.47;;
77061;SDS011;65989;51.686;5.138;2023-01-28T10:38:54;15.75;;;8.25;;
77061;SDS011;65989;51.686;5.138;2023-01-28T10:41:20;17.90;;;8.97;;
77061;SDS011;65989;51.686;5.138;2023-01-28T10:43:47;14.98;;;8.57;;
77061;SDS011;65989;51.686;5.138;2023-01-28T10:46:21;14.20;;;8.35;;
77061;SDS011;65989;51.686;5.138;2023-01-28T10:51:31;17.48;;;9.35;;
77061;SDS011;65989;51.686;5.138;2023-01-28T10:53:58;14.97;;;8.60;;
77061;SDS011;65989;51.686;5.138;2023-01-28T10:56:25;16.25;;;8.95;;
77061;SDS011;65989;51.686;5.138;2023-01-28T10:58:56;15.10;;;7.72;;
77061;SDS011;65989;51.686;5.138;2023-01-28T11:01:36;11.50;;;6.93;;
77061;SDS011;65989;51.686;5.138;2023-01-28T11:04:03;12.90;;;6.73;;
77061;SDS011;65989;51.686;5.138;2023-01-28T11:06:29;11.63;;;6.47;;
77061;SDS011;65989;51.686;5.138;2023-01-28T11:08:55;12.83;;;7.10;;
77061;SDS011;65989;51.686;5.138;2023-01-28T11:11:22;13.93;;;7.00;;
77061;SDS011;65989;51.686;5.138;2023-01-28T11:13:52;13.35;;;6.68;;
77061;SDS011;65989;51.686;5.138;2023-01-28T11:16:19;11.77;;;6.43;;
77061;SDS011;65989;51.686;5.138;2023-01-28T11:18:47;11.67;;;6.63;;
77061;SDS011;65989;51.686;5.138;2023-01-28T11:21:23;11.27;;;5.78;;
77061;SDS011;65989;51.686;5.138;2023-01-28T11:24:01;11.93;;;6.07;;
77061;SDS011;65989;51.686;5.138;2023-01-28T11:26:30;9.73;;;5.50;;
77061;SDS011;65989;51.686;5.138;2023-01-28T11:28:59;10.32;;;5.47;;
77061;SDS011;65989;51.686;5.138;2023-01-28T11:31:24;10.80;;;6.13;;
77061;SDS011;65989;51.686;5.138;2023-01-28T11:33:52;9.95;;;5.25;;
77061;SDS011;65989;51.686;5.138;2023-01-28T11:36:24;9.45;;;5.30;;
77061;SDS011;65989;51.686;5.138;2023-01-28T11:44:13;10.45;;;5.35;;
77061;SDS011;65989;51.686;5.138;2023-01-28T12:23:41;8.70;;;4.75;;
77061;SDS011;65989;51.686;5.138;2023-01-28T12:26:19;10.98;;;4.78;;
77061;SDS011;65989;51.686;5.138;2023-01-28T12:31:41;8.60;;;5.00;;
77061;SDS011;65989;51.686;5.138;2023-01-28T12:42:17;8.85;;;4.63;;
77061;SDS011;65989;51.686;5.138;2023-01-28T12:44:51;8.40;;;4.40;;
77061;SDS011;65989;51.686;5.138;2023-01-28T12:47:28;9.38;;;4.63;;
77061;SDS011;65989;51.686;5.138;2023-01-28T12:50:03;9.73;;;4.77;;
77061;SDS011;65989;51.686;5.138;2023-01-28T12:52:52;10.05;;;4.90;;
77061;SDS011;65989;51.686;5.138;2023-01-28T12:58:11;9.68;;;5.22;;
77061;SDS011;65989;51.686;5.138;2023-01-28T13:00:45;8.15;;;4.38;;
77061;SDS011;65989;51.686;5.138;2023-01-28T13:03:16;10.03;;;4.87;;
77061;SDS011;65989;51.686;5.138;2023-01-28T13:05:50;9.27;;;4.95;;
77061;SDS011;65989;51.686;5.138;2023-01-28T13:08:23;9.35;;;5.15;;
77061;SDS011;65989;51.686;5.138;2023-01-28T13:10:50;10.07;;;5.00;;
77061;SDS011;65989;51.686;5.138;2023-01-28T13:13:39;9.27;;;4.72;;
77061;SDS011;65989;51.686;5.138;2023-01-28T13:16:06;9.27;;;4.80;;
77061;SDS011;65989;51.686;5.138;2023-01-28T13:18:41;10.18;;;5.10;;
77061;SDS011;65989;51.686;5.138;2023-01-28T13:23:48;10.95;;;5.05;;
77061;SDS011;65989;51.686;5.138;2023-01-28T13:28:44;11.40;;;5.07;;
77061;SDS011;65989;51.686;5.138;2023-01-28T13:31:15;9.80;;;5.82;;
77061;SDS011;65989;51.686;5.138;2023-01-28T13:33:45;12.10;;;4.72;;
77061;SDS011;65989;51.686;5.138;2023-01-28T13:38:43;9.02;;;4.80;;
77061;SDS011;65989;51.686;5.138;2023-01-28T13:41:09;10.47;;;4.70;;
77061;SDS011;65989;51.686;5.138;2023-01-28T13:43:39;12.38;;;5.20;;
77061;SDS011;65989;51.686;5.138;2023-01-28T13:46:28;10.13;;;4.90;;
77061;SDS011;65989;51.686;5.138;2023-01-28T13:48:54;9.60;;;5.10;;
77061;SDS011;65989;51.686;5.138;2023-01-28T13:51:23;9.55;;;4.40;;
77061;SDS011;65989;51.686;5.138;2023-01-28T13:53:59;9.77;;;4.78;;
77061;SDS011;65989;51.686;5.138;2023-01-28T13:56:40;8.20;;;4.57;;
77061;SDS011;65989;51.686;5.138;2023-01-28T14:04:51;9.25;;;5.10;;
77061;SDS011;65989;51.686;5.138;2023-01-28T14:10:23;9.02;;;4.55;;
77061;SDS011;65989;51.686;5.138;2023-01-28T14:18:33;9.47;;;4.93;;
77061;SDS011;65989;51.686;5.138;2023-01-28T14:21:06;10.15;;;5.38;;
77061;SDS011;65989;51.686;5.138;2023-01-28T14:23:36;9.63;;;4.63;;
77061;SDS011;65989;51.686;5.138;2023-01-28T14:31:53;10.30;;;5.03;;
77061;SDS011;65989;51.686;5.138;2023-01-28T14:34:38;8.93;;;4.82;;
77061;SDS011;65989;51.686;5.138;2023-01-28T14:37:05;10.40;;;5.03;;
77061;SDS011;65989;51.686;5.138;2023-01-28T14:42:29;10.70;;;5.30;;
77061;SDS011;65989;51.686;5.138;2023-01-28T14:52:54;10.50;;;4.95;;
77061;SDS011;65989;51.686;5.138;2023-01-28T14:55:50;9.60;;;5.27;;
77061;SDS011;65989;51.686;5.138;2023-01-28T14:58:25;10.25;;;5.22;;
77061;SDS011;65989;51.686;5.138;2023-01-28T15:00:57;10.43;;;5.25;;
77061;SDS011;65989;51.686;5.138;2023-01-28T15:03:25;11.13;;;5.28;;
77061;SDS011;65989;51.686;5.138;2023-01-28T15:09:04;12.63;;;5.47;;
77061;SDS011;65989;51.686;5.138;2023-01-28T15:11:35;10.75;;;5.57;;
77061;SDS011;65989;51.686;5.138;2023-01-28T15:14:03;12.70;;;5.22;;
77061;SDS011;65989;51.686;5.138;2023-01-28T15:16:32;11.50;;;5.00;;
77061;SDS011;65989;51.686;5.138;2023-01-28T15:18:59;9.90;;;5.18;;
77061;SDS011;65989;51.686;5.138;2023-01-28T15:21:26;10.63;;;5.77;;
77061;SDS011;65989;51.686;5.138;2023-01-28T15:23:57;11.82;;;5.75;;
77061;SDS011;65989;51.686;5.138;2023-01-28T15:26:28;10.10;;;5.00;;
77061;SDS011;65989;51.686;5.138;2023-01-28T15:28:56;7.95;;;4.50;;
77061;SDS011;65989;51.686;5.138;2023-01-28T15:31:26;10.82;;;5.30;;
77061;SDS011;65989;51.686;5.138;2023-01-28T15:33:54;10.90;;;5.50;;
77061;SDS011;65989;51.686;5.138;2023-01-28T15:36:24;12.25;;;5.30;;
77061;SDS011;65989;51.686;5.138;2023-01-28T15:38:50;12.00;;;5.93;;
77061;SDS011;65989;51.686;5.138;2023-01-28T15:41:19;12.30;;;6.10;;
77061;SDS011;65989;51.686;5.138;2023-01-28T15:43:47;12.57;;;6.30;;
77061;SDS011;65989;51.686;5.138;2023-01-28T15:46:14;16.55;;;6.90;;
77061;SDS011;65989;51.686;5.138;2023-01-28T15:48:40;13.82;;;6.88;;
77061;SDS011;65989;51.686;5.138;2023-01-28T15:51:16;18.70;;;9.23;;
77061;SDS011;65989;51.686;5.138;2023-01-28T15:53:45;22.60;;;8.85;;
77061;SDS011;65989;51.686;5.138;2023-01-28T15:56:14;13.15;;;6.40;;
77061;SDS011;65989;51.686;5.138;2023-01-28T15:58:40;12.88;;;6.15;;
77061;SDS011;65989;51.686;5.138;2023-01-28T16:03:35;18.80;;;9.80;;
77061;SDS011;65989;51.686;5.138;2023-01-28T16:06:19;20.00;;;8.88;;
77061;SDS011;65989;51.686;5.138;2023-01-28T16:08:56;15.02;;;7.95;;
77061;SDS011;65989;51.686;5.138;2023-01-28T16:11:42;26.80;;;13.75;;
77061;SDS011;65989;51.686;5.138;2023-01-28T16:14:41;20.63;;;9.70;;
77061;SDS011;65989;51.686;5.138;2023-01-28T16:17:02;12.43;;;7.13;;
77061;SDS011;65989;51.686;5.138;2023-01-28T16:19:32;12.93;;;6.93;;
77061;SDS011;65989;51.686;5.138;2023-01-28T16:22:02;13.10;;;6.57;;
77061;SDS011;65989;51.686;5.138;2023-01-28T16:24:30;12.55;;;6.65;;
77061;SDS011;65989;51.686;5.138;2023-01-28T16:27:18;10.98;;;6.72;;
77061;SDS011;65989;51.686;5.138;2023-01-28T16:29:46;13.25;;;7.88;;
77061;SDS011;65989;51.686;5.138;2023-01-28T16:34:59;12.18;;;6.68;;
77061;SDS011;65989;51.686;5.138;2023-01-28T16:37:25;17.13;;;10.70;;
77061;SDS011;65989;51.686;5.138;2023-01-28T16:39:50;19.02;;;10.60;;
77061;SDS011;65989;51.686;5.138;2023-01-28T16:42:16;19.13;;;10.90;;
77061;SDS011;65989;51.686;5.138;2023-01-28T16:44:42;17.35;;;10.10;;
77061;SDS011;65989;51.686;5.138;2023-01-28T16:47:07;14.50;;;8.63;;
77061;SDS011;65989;51.686;5.138;2023-01-28T16:49:33;12.27;;;6.75;;
77061;SDS011;65989;51.686;5.138;2023-01-28T16:51:59;11.20;;;6.53;;
77061;SDS011;65989;51.686;5.138;2023-01-28T16:54:25;11.25;;;6.88;;
77061;SDS011;65989;51.686;5.138;2023-01-28T16:56:51;11.17;;;6.17;;
77061;SDS011;65989;51.686;5.138;2023-01-28T16:59:18;14.95;;;7.25;;
77061;SDS011;65989;51.686;5.138;2023-01-28T17:01:43;13.37;;;6.17;;
77061;SDS011;65989;51.686;5.138;2023-01-28T17:04:09;12.10;;;6.18;;
77061;SDS011;65989;51.686;5.138;2023-01-28T17:06:35;13.23;;;7.20;;
77061;SDS011;65989;51.686;5.138;2023-01-28T17:09:10;12.55;;;7.00;;
77061;SDS011;65989;51.686;5.138;2023-01-28T17:11:39;13.70;;;7.57;;
77061;SDS011;65989;51.686;5.138;2023-01-28T17:14:04;13.35;;;7.82;;
77061;SDS011;65989;51.686;5.138;2023-01-28T17:16:33;14.87;;;7.73;;
77061;SDS011;65989;51.686;5.138;2023-01-28T17:18:58;13.05;;;7.35;;